APL England — 9VDD2 — position and weather

sailwx.info

Track history (hours):
 
Tides and Currents Weather Stations Pressure Air Temp Water Temp Dewpoint Dewpoint Depression Visibility Wind Speed Wind Dir Waves Ship Positions

APL England

Last reported at 2018-Jul-11 11:18 UTC. Time now 2018-Jul-23 11:47 UTC.
Position N 01°21' E 103°15'.
Warning: this ship's position is 12 days out of date.

MMSI: 563722000.

Date/timePositionNaut miles runAvg speedWind from/ knotsBaromVisibWave heightAir tempDewpointWater temp
2018-Jul-11 11:18N 01°21' E 103°15'515.4
2018-Jul-11 10:59N 01°18' E 103°19'816.2
2018-Jul-11 10:30N 01°14' E 103°26'917.3
2018-Jul-11 10:00N 01°12' E 103°35'612.7
2018-Jul-11 09:30N 01°13' E 103°41'612.2
2018-Jul-11 09:00N 01°16' E 103°46'1 1.7
2018-Jul-11 08:30N 01°15' E 103°47'0 0.0
2018-Jul-11 08:00N 01°15' E 103°47'0 0.0
2018-Jul-11 07:27N 01°15' E 103°47'0 0.0
2018-Jul-11 07:00N 01°15' E 103°47'0 0.0
2018-Jul-11 06:30N 01°15' E 103°47'0 0.0
2018-Jul-11 06:00N 01°15' E 103°47'0 0.0
2018-Jul-11 05:30N 01°15' E 103°47'0 0.0
2018-Jul-11 05:00N 01°15' E 103°47'0 0.0
2018-Jul-11 04:30N 01°15' E 103°47'0 0.0
2018-Jul-11 04:00N 01°15' E 103°47'0 0.0
2018-Jul-11 03:30N 01°15' E 103°47'0 0.0
2018-Jul-11 03:00N 01°15' E 103°47'0 0.0
2018-Jul-11 02:30N 01°15' E 103°47'0 0.0
2018-Jul-11 01:57N 01°15' E 103°47'0 0.0
2018-Jul-11 01:30N 01°15' E 103°47'0 0.0
2018-Jul-11 00:55N 01°15' E 103°47'0 0.0
2018-Jul-11 00:28N 01°15' E 103°47'0 0.0
2018-Jul-10 23:49N 01°15' E 103°47'0 0.0
2018-Jul-10 23:28N 01°15' E 103°47'0 0.0
2018-Jul-10 23:00N 01°15' E 103°47'0 0.0
2018-Jul-10 22:30N 01°15' E 103°47'0 0.0
2018-Jul-10 21:58N 01°15' E 103°47'0 0.0
2018-Jul-10 21:30N 01°15' E 103°47'0 0.0
2018-Jul-10 21:00N 01°15' E 103°47'0 0.0
2018-Jul-10 20:29N 01°15' E 103°47'0 0.1
2018-Jul-10 20:00N 01°15' E 103°47'2 3.6
2018-Jul-10 19:30N 01°14' E 103°47'4 8.1
2018-Jul-10 18:59N 01°13' E 103°52'4 7.8
2018-Jul-10 18:31N 01°14' E 103°55'4 7.5
2018-Jul-10 18:00N 01°15' E 103°59'714.3
2018-Jul-10 17:30N 01°16' E 104°06'815.4
2018-Jul-10 16:59N 01°17' E 104°13'714.7
2018-Jul-10 16:29N 01°20' E 104°21'714.7
2018-Jul-10 16:00N 01°24' E 104°26'2917.0
2018-Jul-10 14:17N 01°50' E 104°39'518.2
2018-Jul-10 14:00N 01°56' E 104°40'  
2018-Jul-07 02:02N 23°17' E 117°44'118.4
2018-Jul-07 02:01N 23°18' E 117°44'918.6
2018-Jul-07 01:31N 23°26' E 117°50'918.4
2018-Jul-07 01:01N 23°32' E 117°58'918.3
2018-Jul-07 00:30N 23°38' E 118°05'918.3
2018-Jul-07 00:00N 23°44' E 118°12'1817.2
2018-Jul-06 22:58N 24°01' E 118°19'818.2
2018-Jul-06 22:31N 24°09' E 118°19'815.7
2018-Jul-06 22:00N 24°16' E 118°14'612.4
2018-Jul-06 21:30N 24°21' E 118°10'612.1
2018-Jul-06 21:00N 24°25' E 118°05'5 9.6
2018-Jul-06 20:30N 24°29' E 118°04'1 2.3
2018-Jul-06 19:59N 24°31' E 118°05'0 0.0
2018-Jul-06 19:29N 24°31' E 118°05'0 0.0
2018-Jul-06 18:59N 24°31' E 118°05'0 0.0
2018-Jul-06 18:29N 24°31' E 118°05'0 0.0
2018-Jul-06 17:59N 24°31' E 118°05'0 0.0
2018-Jul-06 17:29N 24°31' E 118°05'0 0.0
2018-Jul-06 16:56N 24°31' E 118°05'0 0.0
2018-Jul-06 16:29N 24°31' E 118°05'0 0.0
2018-Jul-06 15:59N 24°31' E 118°05'0 0.0
2018-Jul-06 15:29N 24°31' E 118°05'0 0.0
2018-Jul-06 14:59N 24°31' E 118°05'0 0.0
2018-Jul-06 14:29N 24°31' E 118°05'0 0.0
2018-Jul-06 13:59N 24°31' E 118°05'0 0.0
2018-Jul-06 13:26N 24°31' E 118°05'0 0.0
2018-Jul-06 12:59N 24°31' E 118°05'0 0.0
2018-Jul-06 12:29N 24°31' E 118°05'0 0.0
2018-Jul-06 11:54N 24°31' E 118°05'0 1.0
2018-Jul-06 11:30N 24°30' E 118°04'4 9.0
2018-Jul-06 11:01N 24°26' E 118°04'612.4
2018-Jul-06 10:30N 24°22' E 118°09'5 9.7
2018-Jul-06 10:00N 24°18' E 118°12'612.5
2018-Jul-06 09:31N 24°13' E 118°17'5 9.7
2018-Jul-06 09:00N 24°14' E 118°22'3 6.7
2018-Jul-06 08:30N 24°15' E 118°25'1 1.4
2018-Jul-06 08:00N 24°14' E 118°25'1 1.5
2018-Jul-06 07:29N 24°13' E 118°25'1 1.4
2018-Jul-06 07:00N 24°13' E 118°25'2 3.8
2018-Jul-06 06:30N 24°13' E 118°27'4 7.9
2018-Jul-06 06:00N 24°14' E 118°31'4 8.1
2018-Jul-06 05:30N 24°15' E 118°36'5 8.2
2018-Jul-06 04:57N 24°15' E 118°41'3 7.6
2018-Jul-06 04:30N 24°16' E 118°44'4 7.9
2018-Jul-06 04:00N 24°17' E 118°49'6 8.0
2018-Jul-06 03:13N 24°17' E 118°55'2 9.1
2018-Jul-06 03:00N 24°18' E 118°57'  
2018-Jul-03 05:26N 31°16' E 121°54'  
Track history (hours):
 
Tides and Currents Weather Stations Pressure Air Temp Water Temp Dewpoint Dewpoint Depression Visibility Wind Speed Wind Dir Waves Ship Positions

APL England

Last reported at 2018-Jul-11 11:18 UTC. Time now 2018-Jul-23 11:47 UTC.
Position N 01°21' E 103°15'.
Warning: this ship's position is 12 days out of date.

MMSI: 563722000.

Date/timePositionNaut miles runAvg speedWind from/ knotsBaromVisibWave heightAir tempDewpointWater temp
2018-Jul-11 11:18N 01°21' E 103°15'515.4
2018-Jul-11 10:59N 01°18' E 103°19'816.2
2018-Jul-11 10:30N 01°14' E 103°26'917.3
2018-Jul-11 10:00N 01°12' E 103°35'612.7
2018-Jul-11 09:30N 01°13' E 103°41'612.2
2018-Jul-11 09:00N 01°16' E 103°46'1 1.7
2018-Jul-11 08:30N 01°15' E 103°47'0 0.0
2018-Jul-11 08:00N 01°15' E 103°47'0 0.0
2018-Jul-11 07:27N 01°15' E 103°47'0 0.0
2018-Jul-11 07:00N 01°15' E 103°47'0 0.0
2018-Jul-11 06:30N 01°15' E 103°47'0 0.0
2018-Jul-11 06:00N 01°15' E 103°47'0 0.0
2018-Jul-11 05:30N 01°15' E 103°47'0 0.0
2018-Jul-11 05:00N 01°15' E 103°47'0 0.0
2018-Jul-11 04:30N 01°15' E 103°47'0 0.0
2018-Jul-11 04:00N 01°15' E 103°47'0 0.0
2018-Jul-11 03:30N 01°15' E 103°47'0 0.0
2018-Jul-11 03:00N 01°15' E 103°47'0 0.0
2018-Jul-11 02:30N 01°15' E 103°47'0 0.0
2018-Jul-11 01:57N 01°15' E 103°47'0 0.0
2018-Jul-11 01:30N 01°15' E 103°47'0 0.0
2018-Jul-11 00:55N 01°15' E 103°47'0 0.0
2018-Jul-11 00:28N 01°15' E 103°47'0 0.0
2018-Jul-10 23:49N 01°15' E 103°47'0 0.0
2018-Jul-10 23:28N 01°15' E 103°47'0 0.0
2018-Jul-10 23:00N 01°15' E 103°47'0 0.0
2018-Jul-10 22:30N 01°15' E 103°47'0 0.0
2018-Jul-10 21:58N 01°15' E 103°47'0 0.0
2018-Jul-10 21:30N 01°15' E 103°47'0 0.0
2018-Jul-10 21:00N 01°15' E 103°47'0 0.0
2018-Jul-10 20:29N 01°15' E 103°47'0 0.1
2018-Jul-10 20:00N 01°15' E 103°47'2 3.6
2018-Jul-10 19:30N 01°14' E 103°47'4 8.1
2018-Jul-10 18:59N 01°13' E 103°52'4 7.8
2018-Jul-10 18:31N 01°14' E 103°55'4 7.5
2018-Jul-10 18:00N 01°15' E 103°59'714.3
2018-Jul-10 17:30N 01°16' E 104°06'815.4
2018-Jul-10 16:59N 01°17' E 104°13'714.7
2018-Jul-10 16:29N 01°20' E 104°21'714.7
2018-Jul-10 16:00N 01°24' E 104°26'2917.0
2018-Jul-10 14:17N 01°50' E 104°39'518.2
2018-Jul-10 14:00N 01°56' E 104°40'  
2018-Jul-07 02:02N 23°17' E 117°44'118.4
2018-Jul-07 02:01N 23°18' E 117°44'918.6
2018-Jul-07 01:31N 23°26' E 117°50'918.4
2018-Jul-07 01:01N 23°32' E 117°58'918.3
2018-Jul-07 00:30N 23°38' E 118°05'918.3
2018-Jul-07 00:00N 23°44' E 118°12'1817.2
2018-Jul-06 22:58N 24°01' E 118°19'818.2
2018-Jul-06 22:31N 24°09' E 118°19'815.7
2018-Jul-06 22:00N 24°16' E 118°14'612.4
2018-Jul-06 21:30N 24°21' E 118°10'612.1
2018-Jul-06 21:00N 24°25' E 118°05'5 9.6
2018-Jul-06 20:30N 24°29' E 118°04'1 2.3
2018-Jul-06 19:59N 24°31' E 118°05'0 0.0
2018-Jul-06 19:29N 24°31' E 118°05'0 0.0
2018-Jul-06 18:59N 24°31' E 118°05'0 0.0
2018-Jul-06 18:29N 24°31' E 118°05'0 0.0
2018-Jul-06 17:59N 24°31' E 118°05'0 0.0
2018-Jul-06 17:29N 24°31' E 118°05'0 0.0
2018-Jul-06 16:56N 24°31' E 118°05'0 0.0
2018-Jul-06 16:29N 24°31' E 118°05'0 0.0
2018-Jul-06 15:59N 24°31' E 118°05'0 0.0
2018-Jul-06 15:29N 24°31' E 118°05'0 0.0
2018-Jul-06 14:59N 24°31' E 118°05'0 0.0
2018-Jul-06 14:29N 24°31' E 118°05'0 0.0
2018-Jul-06 13:59N 24°31' E 118°05'0 0.0
2018-Jul-06 13:26N 24°31' E 118°05'0 0.0
2018-Jul-06 12:59N 24°31' E 118°05'0 0.0
2018-Jul-06 12:29N 24°31' E 118°05'0 0.0
2018-Jul-06 11:54N 24°31' E 118°05'0 1.0
2018-Jul-06 11:30N 24°30' E 118°04'4 9.0
2018-Jul-06 11:01N 24°26' E 118°04'612.4
2018-Jul-06 10:30N 24°22' E 118°09'5 9.7
2018-Jul-06 10:00N 24°18' E 118°12'612.5
2018-Jul-06 09:31N 24°13' E 118°17'5 9.7
2018-Jul-06 09:00N 24°14' E 118°22'3 6.7
2018-Jul-06 08:30N 24°15' E 118°25'1 1.4
2018-Jul-06 08:00N 24°14' E 118°25'1 1.5
2018-Jul-06 07:29N 24°13' E 118°25'1 1.4
2018-Jul-06 07:00N 24°13' E 118°25'2 3.8
2018-Jul-06 06:30N 24°13' E 118°27'4 7.9
2018-Jul-06 06:00N 24°14' E 118°31'4 8.1
2018-Jul-06 05:30N 24°15' E 118°36'5 8.2
2018-Jul-06 04:57N 24°15' E 118°41'3 7.6
2018-Jul-06 04:30N 24°16' E 118°44'4 7.9
2018-Jul-06 04:00N 24°17' E 118°49'6 8.0
2018-Jul-06 03:13N 24°17' E 118°55'2 9.1
2018-Jul-06 03:00N 24°18' E 118°57'  
2018-Jul-03 05:26N 31°16' E 121°54'  

Dump ship's entire track history